Time;durP1;ratioP1;P1;durP2;ratioP2;P2;SDS_P1;SDS_P2;PMS_P1;PMS_P2;Temp;Humidity;BMP_temperature;BMP_pressure;BME280_temperature;BME280_humidity;BME280_pressure;Samples;Min_cycle;Max_cycle;Signal;HPM_P1;HPM_P2
2021/03/22 00:01:14;;;;;;;19.00;3.13;;;;;;;;;;5060002;28;20458;-72
2021/03/22 00:03:41;;;;;;;8.43;4.30;;;;;;;;;;5060140;28;20552;-72
2021/03/22 00:06:09;;;;;;;16.87;3.50;;;;;;;;;;5060209;28;20454;-72
2021/03/22 00:08:37;;;;;;;11.50;3.07;;;;;;;;;;5067118;28;20457;-73
2021/03/22 00:11:05;;;;;;;12.73;3.47;;;;;;;;;;5075713;28;20464;-73
2021/03/22 00:13:33;;;;;;;15.33;3.90;;;;;;;;;;5079775;28;20505;-73
2021/03/22 00:16:01;;;;;;;15.30;3.60;;;;;;;;;;5079777;28;20485;-73
2021/03/22 00:18:30;;;;;;;22.90;3.50;;;;;;;;;;5080214;28;20602;-72
2021/03/22 00:20:57;;;;;;;12.70;3.63;;;;;;;;;;5071029;28;20458;-72
2021/03/22 00:23:25;;;;;;;5.23;2.87;;;;;;;;;;5073873;28;20469;-72
2021/03/22 00:25:53;;;;;;;17.53;2.93;;;;;;;;;;5080181;28;20457;-73
2021/03/22 00:28:26;;;;;;;13.53;3.37;;;;;;;;;;5072237;28;20483;-74
2021/03/22 00:30:54;;;;;;;16.90;4.03;;;;;;;;;;5060240;28;20465;-73
2021/03/22 00:33:21;;;;;;;13.77;2.90;;;;;;;;;;5059911;28;20469;-74
2021/03/22 00:35:49;;;;;;;12.20;2.40;;;;;;;;;;5059564;28;20691;-73
2021/03/22 00:38:17;;;;;;;11.23;2.33;;;;;;;;;;5060098;28;20474;-73
2021/03/22 00:40:46;;;;;;;21.57;2.87;;;;;;;;;;5058824;28;20554;-72
2021/03/22 00:43:16;;;;;;;13.90;5.30;;;;;;;;;;5077657;28;20477;-73
2021/03/22 00:45:43;;;;;;;14.80;2.50;;;;;;;;;;5065607;28;20465;-72
2021/03/22 00:48:13;;;;;;;21.40;3.60;;;;;;;;;;5059080;28;20442;-72
2021/03/22 00:50:41;;;;;;;15.70;3.13;;;;;;;;;;5060297;28;20490;-73
2021/03/22 00:53:09;;;;;;;20.67;2.97;;;;;;;;;;5065739;28;20538;-74
2021/03/22 00:55:37;;;;;;;14.30;2.80;;;;;;;;;;5077423;28;20931;-72
2021/03/22 00:58:07;;;;;;;19.57;5.00;;;;;;;;;;5080041;28;20445;-72
2021/03/22 01:00:37;;;;;;;15.37;2.57;;;;;;;;;;5076758;28;20465;-72
2021/03/22 01:03:05;;;;;;;9.33;3.57;;;;;;;;;;5079682;28;20872;-72
2021/03/22 01:05:33;;;;;;;12.93;2.73;;;;;;;;;;5062429;28;20502;-73
2021/03/22 01:08:00;;;;;;;14.70;3.40;;;;;;;;;;5063413;28;20462;-73
2021/03/22 01:10:32;;;;;;;17.87;3.37;;;;;;;;;;5080196;28;20468;-73
2021/03/22 01:12:59;;;;;;;11.83;3.47;;;;;;;;;;5076721;28;20551;-73
2021/03/22 01:15:27;;;;;;;13.43;3.10;;;;;;;;;;5058856;28;20931;-72
2021/03/22 01:17:55;;;;;;;20.53;3.60;;;;;;;;;;5062492;28;20461;-73
2021/03/22 01:20:26;;;;;;;14.43;3.43;;;;;;;;;;5078691;28;20453;-73
2021/03/22 01:23:06;;;;;;;14.63;2.30;;;;;;;;;;5077882;28;20728;-73
2021/03/22 01:25:34;;;;;;;16.30;3.60;;;;;;;;;;5058991;28;20472;-73
2021/03/22 01:28:02;;;;;;;20.50;4.40;;;;;;;;;;5058884;28;20473;-73
2021/03/22 01:30:33;;;;;;;16.70;4.40;;;;;;;;;;5059743;28;20761;-73
2021/03/22 01:33:04;;;;;;;17.40;2.73;;;;;;;;;;5059982;28;20520;-73
2021/03/22 01:35:31;;;;;;;18.10;2.80;;;;;;;;;;5078116;28;20528;-72
2021/03/22 01:37:59;;;;;;;11.97;2.50;;;;;;;;;;5078316;28;20492;-73
2021/03/22 01:40:32;;;;;;;12.80;3.97;;;;;;;;;;5068685;28;20466;-73
2021/03/22 01:43:04;;;;;;;12.93;2.93;;;;;;;;;;5060128;28;20543;-73
2021/03/22 01:45:31;;;;;;;14.20;3.33;;;;;;;;;;5077857;28;20469;-72
2021/03/22 01:47:59;;;;;;;13.43;3.90;;;;;;;;;;5078003;28;20457;-73
2021/03/22 01:50:28;;;;;;;5.70;3.13;;;;;;;;;;5078706;28;20883;-73
2021/03/22 01:52:57;;;;;;;19.43;3.30;;;;;;;;;;5078025;28;20530;-73
2021/03/22 01:55:25;;;;;;;11.50;2.97;;;;;;;;;;5077997;28;20489;-73
2021/03/22 01:57:53;;;;;;;9.03;3.10;;;;;;;;;;5074780;28;20473;-72
2021/03/22 02:00:26;;;;;;;9.70;3.40;;;;;;;;;;5074722;28;20465;-73
2021/03/22 02:02:55;;;;;;;15.30;3.40;;;;;;;;;;5077801;28;20471;-73
2021/03/22 02:05:25;;;;;;;11.50;2.70;;;;;;;;;;5078113;28;20465;-73
2021/03/22 02:07:57;;;;;;;13.73;2.70;;;;;;;;;;5076013;28;20453;-73
2021/03/22 02:10:25;;;;;;;19.17;3.47;;;;;;;;;;5078503;28;20466;-73
2021/03/22 02:12:52;;;;;;;26.27;3.40;;;;;;;;;;5078046;28;20614;-72
2021/03/22 02:15:20;;;;;;;17.40;4.23;;;;;;;;;;5077902;28;20901;-73
2021/03/22 02:18:06;;;;;;;9.80;3.30;;;;;;;;;;5076106;28;20453;-73
2021/03/22 02:20:52;;;;;;;10.43;2.77;;;;;;;;;;5057903;28;20838;-73
2021/03/22 02:23:49;;;;;;;12.00;2.20;;;;;;;;;;5057473;28;20485;-72
2021/03/22 02:26:29;;;;;;;12.80;3.70;;;;;;;;;;5057504;28;20462;-73
2021/03/22 02:29:05;;;;;;;17.80;3.40;;;;;;;;;;5065267;28;20813;-73
2021/03/22 02:31:36;;;;;;;18.97;3.93;;;;;;;;;;5077715;28;20924;-73
2021/03/22 02:34:26;;;;;;;15.43;2.90;;;;;;;;;;5077918;28;20900;-73
2021/03/22 02:37:28;;;;;;;10.87;2.77;;;;;;;;;;5078277;28;20489;-73
2021/03/22 02:39:59;;;;;;;11.63;3.20;;;;;;;;;;5064955;28;20473;-73
2021/03/22 02:42:28;;;;;;;7.47;2.17;;;;;;;;;;5057475;28;20466;-73
2021/03/22 02:44:55;;;;;;;10.30;2.30;;;;;;;;;;5057957;28;20457;-72
2021/03/22 02:47:24;;;;;;;9.43;3.30;;;;;;;;;;5058257;28;20466;-73
2021/03/22 02:49:54;;;;;;;15.30;3.00;;;;;;;;;;5070130;28;20457;-73
2021/03/22 02:52:28;;;;;;;10.67;2.73;;;;;;;;;;5078630;28;20461;-73
2021/03/22 02:55:00;;;;;;;8.97;3.23;;;;;;;;;;5075486;28;20459;-73
2021/03/22 02:57:32;;;;;;;12.27;3.73;;;;;;;;;;5057939;28;20925;-73
2021/03/22 03:00:01;;;;;;;14.60;3.70;;;;;;;;;;5071188;28;20488;-73
2021/03/22 03:02:30;;;;;;;16.07;4.20;;;;;;;;;;5077301;28;20460;-73
2021/03/22 03:04:58;;;;;;;9.13;2.13;;;;;;;;;;5078508;28;21016;-73
2021/03/22 03:07:28;;;;;;;22.90;3.87;;;;;;;;;;5077860;28;20462;-73
2021/03/22 03:09:55;;;;;;;13.10;3.87;;;;;;;;;;5060556;28;20532;-72
2021/03/22 03:12:23;;;;;;;20.13;3.47;;;;;;;;;;5058315;28;20869;-73
2021/03/22 03:14:53;;;;;;;16.80;3.27;;;;;;;;;;5061979;28;20446;-73
2021/03/22 03:17:21;;;;;;;17.93;4.00;;;;;;;;;;5073066;28;20584;-72
2021/03/22 03:19:49;;;;;;;9.43;2.63;;;;;;;;;;5079125;28;20457;-72
2021/03/22 03:22:30;;;;;;;11.40;3.30;;;;;;;;;;5061359;28;20469;-72
2021/03/22 03:25:03;;;;;;;10.13;4.40;;;;;;;;;;5061376;28;20527;-72
2021/03/22 03:27:39;;;;;;;18.87;2.47;;;;;;;;;;5076055;28;20535;-72
2021/03/22 03:30:10;;;;;;;17.40;4.00;;;;;;;;;;5081035;28;20469;-72
2021/03/22 03:32:38;;;;;;;14.83;4.37;;;;;;;;;;5074565;28;20909;-72
2021/03/22 03:35:07;;;;;;;17.30;2.80;;;;;;;;;;5071689;28;20866;-72
2021/03/22 03:37:35;;;;;;;17.97;3.90;;;;;;;;;;5060371;28;20527;-72
2021/03/22 03:40:03;;;;;;;24.80;4.50;;;;;;;;;;5061349;28;20465;-72
2021/03/22 03:42:34;;;;;;;11.70;3.60;;;;;;;;;;5061042;28;20465;-72
2021/03/22 03:45:02;;;;;;;16.23;2.37;;;;;;;;;;5060263;28;20853;-72
2021/03/22 03:47:29;;;;;;;12.30;3.33;;;;;;;;;;5068911;28;20469;-72
2021/03/22 03:49:56;;;;;;;14.60;3.90;;;;;;;;;;5080475;28;20457;-72
2021/03/22 03:52:25;;;;;;;12.97;2.60;;;;;;;;;;5080760;28;20799;-72
2021/03/22 03:54:54;;;;;;;12.43;2.70;;;;;;;;;;5080343;28;20524;-72
2021/03/22 03:57:22;;;;;;;16.40;3.80;;;;;;;;;;5079650;28;20510;-72
2021/03/22 03:59:49;;;;;;;13.67;3.83;;;;;;;;;;5080469;28;20467;-73
2021/03/22 04:02:17;;;;;;;7.33;2.87;;;;;;;;;;5080254;28;20456;-72
2021/03/22 04:04:54;;;;;;;18.60;4.10;;;;;;;;;;5079136;28;20479;-72
2021/03/22 04:07:23;;;;;;;25.93;5.67;;;;;;;;;;5080738;28;20465;-72
2021/03/22 04:09:54;;;;;;;8.67;2.17;;;;;;;;;;5066480;28;20461;-72
2021/03/22 04:12:22;;;;;;;24.23;4.80;;;;;;;;;;5060314;28;20753;-72
2021/03/22 04:14:51;;;;;;;11.13;3.00;;;;;;;;;;5060018;28;20801;-72
2021/03/22 04:17:18;;;;;;;15.10;2.90;;;;;;;;;;5059511;28;20586;-72
2021/03/22 04:19:45;;;;;;;16.80;3.20;;;;;;;;;;5060489;28;20461;-72
2021/03/22 04:22:13;;;;;;;15.70;3.37;;;;;;;;;;5060053;28;20465;-72
2021/03/22 04:24:40;;;;;;;15.97;4.57;;;;;;;;;;5061680;28;20466;-73
2021/03/22 04:27:09;;;;;;;16.73;3.13;;;;;;;;;;5068718;28;20449;-72
2021/03/22 04:29:37;;;;;;;7.03;2.80;;;;;;;;;;5059555;28;20535;-73
2021/03/22 04:32:14;;;;;;;15.20;3.90;;;;;;;;;;5076182;28;20453;-73
2021/03/22 04:34:42;;;;;;;12.30;3.33;;;;;;;;;;5059756;28;20548;-73
2021/03/22 04:37:09;;;;;;;16.07;3.73;;;;;;;;;;5059228;28;20525;-73
2021/03/22 04:39:36;;;;;;;12.10;3.00;;;;;;;;;;5059334;28;20527;-72
2021/03/22 04:42:09;;;;;;;13.07;2.50;;;;;;;;;;5072299;28;20845;-73
2021/03/22 04:44:41;;;;;;;9.13;2.90;;;;;;;;;;5060545;28;20525;-73
2021/03/22 04:47:08;;;;;;;16.90;4.93;;;;;;;;;;5077598;28;20527;-73
2021/03/22 04:49:36;;;;;;;15.23;3.40;;;;;;;;;;5062739;28;20461;-73
2021/03/22 04:52:03;;;;;;;9.70;2.60;;;;;;;;;;5059972;28;20472;-73
2021/03/22 04:54:30;;;;;;;9.13;3.00;;;;;;;;;;5059438;28;20560;-73
2021/03/22 04:57:10;;;;;;;20.53;5.53;;;;;;;;;;5074184;28;20485;-73
2021/03/22 04:59:39;;;;;;;13.83;4.57;;;;;;;;;;5079595;28;20469;-73
2021/03/22 05:02:06;;;;;;;10.67;3.17;;;;;;;;;;5063569;28;20450;-73
2021/03/22 05:04:33;;;;;;;9.90;3.10;;;;;;;;;;5057433;28;20877;-73
2021/03/22 05:07:09;;;;;;;18.43;3.97;;;;;;;;;;5070135;28;20899;-73
2021/03/22 05:09:41;;;;;;;22.07;4.50;;;;;;;;;;5058894;28;20740;-72
2021/03/22 05:12:09;;;;;;;12.20;3.60;;;;;;;;;;5058798;28;20460;-74
2021/03/22 05:14:37;;;;;;;6.33;2.53;;;;;;;;;;5062342;28;20472;-73
2021/03/22 05:17:06;;;;;;;8.40;3.60;;;;;;;;;;5078386;28;21177;-73
2021/03/22 05:19:33;;;;;;;20.13;5.00;;;;;;;;;;5078817;28;20468;-73
2021/03/22 05:22:01;;;;;;;9.87;2.50;;;;;;;;;;5059404;28;20470;-73
2021/03/22 05:24:31;;;;;;;14.63;5.57;;;;;;;;;;5058643;28;20465;-73
2021/03/22 05:26:58;;;;;;;13.03;5.93;;;;;;;;;;5058800;28;20465;-73
2021/03/22 05:29:26;;;;;;;18.17;6.60;;;;;;;;;;5058205;28;20736;-73
2021/03/22 05:31:54;;;;;;;16.43;6.10;;;;;;;;;;5058184;28;20462;-73
2021/03/22 05:34:23;;;;;;;9.87;3.50;;;;;;;;;;5057856;28;20469;-73
2021/03/22 05:36:50;;;;;;;23.10;7.03;;;;;;;;;;5058657;28;20494;-73
2021/03/22 05:39:18;;;;;;;17.03;5.00;;;;;;;;;;5058636;28;20464;-73
2021/03/22 05:41:50;;;;;;;13.90;4.80;;;;;;;;;;5057495;28;20815;-73
2021/03/22 05:44:26;;;;;;;15.80;5.23;;;;;;;;;;5057892;28;20534;-72
2021/03/22 05:47:05;;;;;;;10.40;4.57;;;;;;;;;;5057610;28;20472;-74
2021/03/22 05:49:45;;;;;;;16.57;4.50;;;;;;;;;;5057157;28;20448;-73
2021/03/22 05:52:22;;;;;;;16.13;4.90;;;;;;;;;;5057343;28;20533;-73
2021/03/22 05:55:03;;;;;;;21.30;5.10;;;;;;;;;;5057598;28;20877;-72
2021/03/22 05:57:35;;;;;;;12.30;4.87;;;;;;;;;;5058007;28;20516;-71
2021/03/22 06:00:05;;;;;;;24.77;6.43;;;;;;;;;;5057493;28;20469;-74
2021/03/22 06:02:34;;;;;;;13.63;4.10;;;;;;;;;;5064369;28;20748;-74
2021/03/22 06:05:20;;;;;;;20.33;4.60;;;;;;;;;;5063197;28;20493;-73
2021/03/22 06:07:51;;;;;;;9.80;3.20;;;;;;;;;;5056292;28;20461;-73
2021/03/22 06:10:19;;;;;;;18.43;6.43;;;;;;;;;;5057151;28;20960;-73
2021/03/22 06:12:50;;;;;;;15.13;8.33;;;;;;;;;;5056324;28;20822;-73
2021/03/22 06:15:21;;;;;;;19.83;6.80;;;;;;;;;;5056392;28;20527;-73
2021/03/22 06:17:51;;;;;;;30.97;7.20;;;;;;;;;;5055902;28;20449;-73
2021/03/22 06:20:21;;;;;;;20.37;6.63;;;;;;;;;;5054656;28;20607;-73
2021/03/22 06:22:49;;;;;;;17.17;5.17;;;;;;;;;;5055782;28;20539;-73
2021/03/22 06:25:18;;;;;;;35.10;8.03;;;;;;;;;;5056357;28;20489;-73
2021/03/22 06:27:47;;;;;;;20.90;8.10;;;;;;;;;;5055051;28;20723;-73
2021/03/22 06:30:19;;;;;;;21.20;10.07;;;;;;;;;;5056837;28;20955;-72
2021/03/22 06:32:49;;;;;;;22.10;8.40;;;;;;;;;;5058271;28;20494;-72
2021/03/22 06:35:19;;;;;;;27.93;7.77;;;;;;;;;;5056896;28;20465;-72
2021/03/22 06:37:47;;;;;;;12.10;6.60;;;;;;;;;;5057473;28;20549;-72
2021/03/22 06:40:17;;;;;;;33.10;9.50;;;;;;;;;;5055969;28;20746;-72
2021/03/22 06:42:45;;;;;;;14.30;8.00;;;;;;;;;;5056823;28;20494;-73
2021/03/22 06:45:29;;;;;;;31.00;9.77;;;;;;;;;;5054519;28;20553;-73
2021/03/22 06:48:12;;;;;;;28.97;9.90;;;;;;;;;;5054380;28;20465;-73
2021/03/22 06:50:40;;;;;;;19.20;9.93;;;;;;;;;;5057237;28;20458;-73
2021/03/22 06:53:09;;;;;;;30.80;10.53;;;;;;;;;;5065350;28;20456;-73
2021/03/22 06:55:40;;;;;;;21.73;10.50;;;;;;;;;;5061131;28;20552;-73
2021/03/22 06:58:28;;;;;;;16.07;8.70;;;;;;;;;;5071770;28;20447;-73
2021/03/22 07:01:17;;;;;;;20.13;9.73;;;;;;;;;;5066642;28;20514;-73
2021/03/22 07:03:44;;;;;;;15.17;9.37;;;;;;;;;;5078929;28;20460;-73
2021/03/22 07:06:20;;;;;;;28.30;8.90;;;;;;;;;;5079848;28;20519;-72
2021/03/22 07:08:48;;;;;;;17.60;9.33;;;;;;;;;;5077961;28;20460;-72
2021/03/22 07:11:17;;;;;;;19.97;10.47;;;;;;;;;;5078389;28;20459;-72
2021/03/22 07:14:02;;;;;;;20.70;9.40;;;;;;;;;;5078815;28;20469;-73
2021/03/22 07:16:30;;;;;;;26.10;11.20;;;;;;;;;;5078171;28;20502;-72
2021/03/22 07:19:06;;;;;;;30.90;10.67;;;;;;;;;;5078444;28;20480;-73
2021/03/22 07:21:34;;;;;;;12.50;7.70;;;;;;;;;;5078472;28;20577;-74
2021/03/22 07:24:12;;;;;;;15.13;8.40;;;;;;;;;;5077541;28;20446;-73
2021/03/22 07:26:50;;;;;;;22.27;9.00;;;;;;;;;;5078194;28;20460;-72
2021/03/22 07:29:32;;;;;;;15.03;9.30;;;;;;;;;;5077248;28;20453;-72
2021/03/22 07:32:02;;;;;;;18.37;9.87;;;;;;;;;;5078060;28;20464;-73
2021/03/22 07:34:43;;;;;;;26.30;10.63;;;;;;;;;;5079195;28;20472;-73
2021/03/22 07:37:18;;;;;;;19.00;7.33;;;;;;;;;;5076996;28;20489;-72
2021/03/22 07:39:48;;;;;;;26.87;8.10;;;;;;;;;;5076336;28;20444;-72
2021/03/22 07:42:56;;;;;;;14.77;6.43;;;;;;;;;;5069106;28;20480;-73
2021/03/22 07:48:42;;;;;;;28.47;11.20;;;;;;;;;;5065393;28;20419;-73
2021/03/22 07:51:19;;;;;;;20.93;11.00;;;;;;;;;;5079626;28;20457;-73
2021/03/22 07:53:53;;;;;;;21.40;7.70;;;;;;;;;;5059976;28;20468;-73
2021/03/22 07:56:26;;;;;;;15.63;7.93;;;;;;;;;;5059112;28;20503;-73
2021/03/22 07:59:05;;;;;;;20.33;8.50;;;;;;;;;;5060295;28;20841;-73
2021/03/22 08:01:38;;;;;;;19.87;8.67;;;;;;;;;;5060022;28;20549;-73
2021/03/22 08:04:35;;;;;;;26.33;10.20;;;;;;;;;;5059672;28;20458;-73
2021/03/22 08:07:07;;;;;;;14.27;7.73;;;;;;;;;;5067820;28;20570;-73
2021/03/22 08:09:44;;;;;;;22.97;10.50;;;;;;;;;;5066499;28;20466;-74
2021/03/22 08:12:17;;;;;;;29.20;12.37;;;;;;;;;;5058150;28;20469;-73
2021/03/22 08:14:44;;;;;;;15.33;8.60;;;;;;;;;;5058304;28;20452;-73
2021/03/22 08:17:24;;;;;;;14.20;7.97;;;;;;;;;;5058506;28;20913;-73
2021/03/22 08:19:55;;;;;;;21.10;9.93;;;;;;;;;;5058325;28;20891;-74
2021/03/22 08:22:26;;;;;;;15.93;9.00;;;;;;;;;;5058979;28;20462;-74
2021/03/22 08:25:15;;;;;;;21.37;11.00;;;;;;;;;;5058732;28;20462;-73
2021/03/22 08:27:50;;;;;;;21.50;13.30;;;;;;;;;;5056174;28;20477;-73
2021/03/22 08:30:27;;;;;;;16.50;9.67;;;;;;;;;;5066443;28;20453;-73
2021/03/22 08:32:57;;;;;;;24.27;11.43;;;;;;;;;;5069107;28;20475;-73
2021/03/22 08:35:27;;;;;;;26.87;10.30;;;;;;;;;;5066177;28;20478;-73
2021/03/22 08:38:11;;;;;;;23.03;9.43;;;;;;;;;;5073603;28;20513;-73
2021/03/22 08:40:43;;;;;;;18.90;9.93;;;;;;;;;;5079191;28;20546;-73
2021/03/22 08:43:17;;;;;;;23.17;10.80;;;;;;;;;;5077608;28;20561;-73
2021/03/22 08:46:03;;;;;;;20.83;8.03;;;;;;;;;;5078012;28;20970;-73
2021/03/22 08:48:31;;;;;;;20.93;7.83;;;;;;;;;;5078705;28;20875;-72
2021/03/22 08:51:06;;;;;;;16.80;7.80;;;;;;;;;;5068465;28;20749;-72
2021/03/22 08:53:41;;;;;;;15.53;7.87;;;;;;;;;;5078707;28;20472;-74
2021/03/22 08:56:20;;;;;;;18.23;7.73;;;;;;;;;;5061208;28;20495;-73
2021/03/22 08:58:49;;;;;;;11.37;5.90;;;;;;;;;;5057061;28;20462;-73
2021/03/22 09:01:22;;;;;;;20.83;8.73;;;;;;;;;;5074855;28;20929;-74
2021/03/22 09:03:51;;;;;;;13.20;8.03;;;;;;;;;;5072605;28;20563;-73
2021/03/22 09:06:24;;;;;;;13.37;7.67;;;;;;;;;;5057098;28;20530;-73
2021/03/22 09:09:11;;;;;;;17.63;7.40;;;;;;;;;;5058682;28;20885;-71
2021/03/22 09:11:47;;;;;;;21.43;10.67;;;;;;;;;;5059773;28;20645;-72
2021/03/22 09:14:33;;;;;;;21.30;8.23;;;;;;;;;;5057831;28;20451;-72
2021/03/22 09:17:03;;;;;;;15.33;7.43;;;;;;;;;;5064996;28;20549;-71
2021/03/22 09:19:32;;;;;;;16.73;7.60;;;;;;;;;;5063772;28;20463;-73
2021/03/22 09:22:18;;;;;;;15.30;7.00;;;;;;;;;;5058852;28;20465;-74
2021/03/22 09:24:46;;;;;;;14.27;6.83;;;;;;;;;;5066902;28;21188;-73
2021/03/22 09:27:31;;;;;;;22.90;7.23;;;;;;;;;;5076668;28;20625;-73
2021/03/22 09:30:17;;;;;;;9.33;5.57;;;;;;;;;;5075375;28;20443;-72
2021/03/22 09:32:47;;;;;;;9.43;4.90;;;;;;;;;;5078416;28;20699;-72
2021/03/22 09:35:50;;;;;;;16.70;6.27;;;;;;;;;;5076609;28;20460;-72
2021/03/22 09:38:35;;;;;;;21.63;7.43;;;;;;;;;;5075479;28;20467;-74
2021/03/22 09:41:09;;;;;;;15.90;6.30;;;;;;;;;;5073995;28;20450;-74
2021/03/22 09:43:37;;;;;;;15.40;5.90;;;;;;;;;;5056089;28;20537;-72
2021/03/22 09:46:07;;;;;;;20.53;7.53;;;;;;;;;;5056257;28;20460;-74
2021/03/22 09:48:36;;;;;;;16.97;5.20;;;;;;;;;;5056801;28;20803;-72
2021/03/22 09:51:35;;;;;;;14.40;5.17;;;;;;;;;;5060631;28;20470;-73
2021/03/22 09:54:03;;;;;;;14.53;5.10;;;;;;;;;;5062949;28;20552;-72
2021/03/22 09:56:34;;;;;;;10.07;5.00;;;;;;;;;;5073906;28;20575;-73
2021/03/22 09:59:19;;;;;;;9.80;4.70;;;;;;;;;;5060297;28;20550;-73
2021/03/22 10:01:47;;;;;;;10.40;4.93;;;;;;;;;;5056449;28;20533;-72
2021/03/22 10:04:38;;;;;;;9.33;4.20;;;;;;;;;;5058224;28;20464;-72
2021/03/22 10:07:27;;;;;;;11.60;4.93;;;;;;;;;;5030823;28;20477;-72
2021/03/22 10:10:00;;;;;;;12.43;4.60;;;;;;;;;;5055584;28;20979;-71
2021/03/22 10:12:31;;;;;;;10.80;5.17;;;;;;;;;;5056003;28;20464;-71
2021/03/22 10:15:10;;;;;;;14.23;5.27;;;;;;;;;;5054947;28;20624;-71
2021/03/22 10:17:40;;;;;;;6.97;3.77;;;;;;;;;;5071845;28;20978;-71
2021/03/22 10:20:24;;;;;;;16.57;4.93;;;;;;;;;;5067118;28;20462;-71
2021/03/22 10:22:54;;;;;;;15.03;5.80;;;;;;;;;;5072423;28;20463;-71
2021/03/22 10:25:26;;;;;;;10.83;5.37;;;;;;;;;;5075350;28;20484;-72
2021/03/22 10:28:00;;;;;;;13.27;4.90;;;;;;;;;;5065047;28;20489;-71
2021/03/22 10:30:32;;;;;;;10.43;4.43;;;;;;;;;;5057297;28;20503;-72
2021/03/22 10:33:00;;;;;;;10.00;4.83;;;;;;;;;;5057031;28;20517;-72
2021/03/22 10:35:46;;;;;;;4.93;3.30;;;;;;;;;;5056503;28;20471;-71
2021/03/22 10:38:19;;;;;;;9.77;3.77;;;;;;;;;;5057853;28;20457;-71
2021/03/22 10:40:51;;;;;;;13.97;5.27;;;;;;;;;;5057265;28;20503;-72
2021/03/22 10:43:28;;;;;;;14.67;5.30;;;;;;;;;;5057777;28;20503;-71
2021/03/22 10:45:56;;;;;;;12.97;5.70;;;;;;;;;;5055366;28;20497;-72
2021/03/22 10:48:30;;;;;;;13.73;3.93;;;;;;;;;;5066700;28;20454;-71
2021/03/22 10:51:05;;;;;;;8.13;3.10;;;;;;;;;;5065593;28;20486;-72
2021/03/22 10:53:34;;;;;;;9.53;3.43;;;;;;;;;;5069846;28;20462;-72
2021/03/22 10:59:06;;;;;;;4.50;2.43;;;;;;;;;;5053712;28;20461;-72
2021/03/22 11:01:38;;;;;;;9.77;3.20;;;;;;;;;;5054903;28;20462;-72
2021/03/22 11:04:08;;;;;;;6.40;2.77;;;;;;;;;;5062297;28;20461;-70
2021/03/22 11:06:38;;;;;;;9.40;4.53;;;;;;;;;;5055285;28;20461;-71
2021/03/22 11:09:17;;;;;;;8.40;3.83;;;;;;;;;;5056241;28;20464;-73
2021/03/22 11:11:50;;;;;;;14.00;3.80;;;;;;;;;;5065980;28;20826;-73
2021/03/22 11:14:19;;;;;;;11.70;3.70;;;;;;;;;;5068561;28;20923;-72
2021/03/22 11:16:51;;;;;;;8.53;2.17;;;;;;;;;;5076211;28;20518;-72
2021/03/22 11:19:30;;;;;;;9.70;4.37;;;;;;;;;;5057054;28;20458;-72
2021/03/22 11:22:00;;;;;;;12.03;4.07;;;;;;;;;;5067427;28;20497;-71
2021/03/22 11:24:39;;;;;;;10.40;4.17;;;;;;;;;;5063039;28;20494;-72
2021/03/22 11:27:07;;;;;;;6.50;3.20;;;;;;;;;;5055800;28;20480;-72
2021/03/22 11:29:36;;;;;;;10.30;3.27;;;;;;;;;;5054191;28;20488;-72
2021/03/22 11:32:05;;;;;;;12.60;3.90;;;;;;;;;;5055248;28;20530;-73
2021/03/22 11:34:46;;;;;;;14.60;3.87;;;;;;;;;;5066890;28;20459;-72
2021/03/22 11:37:17;;;;;;;5.13;2.80;;;;;;;;;;5071544;28;20576;-73
2021/03/22 11:39:45;;;;;;;9.63;2.90;;;;;;;;;;5077931;28;20452;-72
2021/03/22 11:42:21;;;;;;;6.90;2.17;;;;;;;;;;5079306;28;20526;-72
2021/03/22 11:44:48;;;;;;;11.27;3.40;;;;;;;;;;5062462;28;20446;-72
2021/03/22 11:47:34;;;;;;;5.83;2.40;;;;;;;;;;5061191;28;20550;-72
2021/03/22 11:50:01;;;;;;;9.07;3.23;;;;;;;;;;5059752;28;20465;-72
2021/03/22 11:52:30;;;;;;;7.13;3.50;;;;;;;;;;5059386;28;20477;-71
2021/03/22 11:55:03;;;;;;;3.33;1.80;;;;;;;;;;5060341;28;20485;-71
2021/03/22 11:57:34;;;;;;;5.03;1.83;;;;;;;;;;5067190;28;20924;-73
2021/03/22 12:00:07;;;;;;;4.30;2.17;;;;;;;;;;5072297;28;20560;-72
2021/03/22 12:02:57;;;;;;;6.13;2.07;;;;;;;;;;5067692;28;20539;-71
2021/03/22 12:05:27;;;;;;;15.37;2.50;;;;;;;;;;5064057;28;20457;-70
2021/03/22 12:07:54;;;;;;;6.50;1.60;;;;;;;;;;5073726;28;20475;-70
2021/03/22 12:10:27;;;;;;;4.43;1.07;;;;;;;;;;5059884;28;20459;-72
2021/03/22 12:12:58;;;;;;;7.63;2.23;;;;;;;;;;5064870;28;20480;-73
2021/03/22 12:15:29;;;;;;;17.03;2.93;;;;;;;;;;5062053;28;20465;-72
2021/03/22 12:18:00;;;;;;;7.53;1.83;;;;;;;;;;5069475;28;20489;-71
2021/03/22 12:20:32;;;;;;;10.13;1.63;;;;;;;;;;5074009;28;20545;-72
2021/03/22 12:22:59;;;;;;;7.20;1.73;;;;;;;;;;5061541;28;20940;-70
2021/03/22 12:25:29;;;;;;;10.40;2.20;;;;;;;;;;5061667;28;20470;-70
2021/03/22 12:27:59;;;;;;;9.10;2.73;;;;;;;;;;5068809;28;20896;-71
2021/03/22 12:30:28;;;;;;;6.67;2.03;;;;;;;;;;5068143;28;20755;-71
2021/03/22 12:32:58;;;;;;;7.83;3.00;;;;;;;;;;5077961;28;20485;-71
2021/03/22 12:35:28;;;;;;;8.27;2.20;;;;;;;;;;5065370;28;20475;-72
2021/03/22 12:37:55;;;;;;;6.97;2.43;;;;;;;;;;5064961;28;20498;-71
2021/03/22 12:40:23;;;;;;;10.10;2.70;;;;;;;;;;5066224;28;20458;-71
2021/03/22 12:42:52;;;;;;;7.43;2.37;;;;;;;;;;5073810;28;20457;-71
2021/03/22 12:45:23;;;;;;;10.77;2.03;;;;;;;;;;5068271;28;20504;-71
2021/03/22 12:47:55;;;;;;;5.63;2.30;;;;;;;;;;5069395;28;20480;-71
2021/03/22 12:50:27;;;;;;;5.97;2.53;;;;;;;;;;5073089;28;20442;-71
2021/03/22 12:52:55;;;;;;;5.90;2.63;;;;;;;;;;5058672;28;20500;-70
2021/03/22 12:55:24;;;;;;;5.10;2.13;;;;;;;;;;5057806;28;20515;-70
2021/03/22 12:57:52;;;;;;;6.83;2.93;;;;;;;;;;5066189;28;20764;-71
2021/03/22 13:00:24;;;;;;;3.80;2.00;;;;;;;;;;5059216;28;20470;-73
2021/03/22 13:02:57;;;;;;;5.27;2.17;;;;;;;;;;5060430;28;20528;-71
2021/03/22 13:05:32;;;;;;;4.90;2.50;;;;;;;;;;5059788;28;20940;-72
2021/03/22 13:08:00;;;;;;;4.93;2.80;;;;;;;;;;5049655;28;20559;-71
2021/03/22 13:10:29;;;;;;;5.03;2.87;;;;;;;;;;5059593;28;20982;-71
2021/03/22 13:13:02;;;;;;;7.30;2.70;;;;;;;;;;5056140;28;20460;-71
2021/03/22 13:15:46;;;;;;;4.03;2.03;;;;;;;;;;5060460;28;20484;-70
2021/03/22 13:18:23;;;;;;;5.60;3.20;;;;;;;;;;5059084;28;20583;-73
2021/03/22 13:21:00;;;;;;;5.17;2.93;;;;;;;;;;5061758;28;20460;-72
2021/03/22 13:23:28;;;;;;;9.17;2.73;;;;;;;;;;5067490;28;20764;-72
2021/03/22 13:25:56;;;;;;;8.77;2.77;;;;;;;;;;5062536;28;20478;-71
2021/03/22 13:28:25;;;;;;;5.90;2.20;;;;;;;;;;5071555;28;20490;-72
2021/03/22 13:31:03;;;;;;;5.53;3.10;;;;;;;;;;5072556;28;20468;-71
2021/03/22 13:33:44;;;;;;;5.90;2.77;;;;;;;;;;5069479;28;20474;-71
2021/03/22 13:36:52;;;;;;;4.40;3.10;;;;;;;;;;5058881;28;20735;-74
2021/03/22 13:39:38;;;;;;;5.87;2.87;;;;;;;;;;5076636;28;20875;-72
2021/03/22 13:42:11;;;;;;;5.73;2.53;;;;;;;;;;5079556;28;20492;-71
2021/03/22 13:44:46;;;;;;;4.50;2.27;;;;;;;;;;5079259;28;20507;-73
2021/03/22 13:47:22;;;;;;;4.23;2.53;;;;;;;;;;5072221;28;20556;-71
2021/03/22 13:49:59;;;;;;;5.47;2.90;;;;;;;;;;5077359;28;20805;-71
2021/03/22 13:55:34;;;;;;;6.30;2.47;;;;;;;;;;5045641;28;20457;-71
2021/03/22 14:00:59;;;;;;;2.30;1.73;;;;;;;;;;5046590;28;20454;-71
2021/03/22 14:09:48;;;;;;;3.47;2.40;;;;;;;;;;5048254;28;20465;-72
2021/03/22 14:12:19;;;;;;;3.80;2.40;;;;;;;;;;5056733;28;20457;-71
2021/03/22 14:14:58;;;;;;;3.57;2.50;;;;;;;;;;5058004;28;20850;-71
2021/03/22 14:17:26;;;;;;;3.70;1.90;;;;;;;;;;5068856;28;20480;-72
2021/03/22 14:32:32;;;;;;;3.27;1.47;;;;;;;;;;5122320;27;20476;-73
2021/03/22 14:35:00;;;;;;;6.13;2.33;;;;;;;;;;5119192;27;20493;-71
2021/03/22 14:37:35;;;;;;;4.40;2.47;;;;;;;;;;5144947;27;20489;-72
2021/03/22 14:40:14;;;;;;;6.70;3.00;;;;;;;;;;5140944;27;20834;-72
2021/03/22 14:42:46;;;;;;;6.03;3.83;;;;;;;;;;5139979;27;20513;-72
2021/03/22 14:48:24;;;;;;;4.73;2.57;;;;;;;;;;5151622;27;20424;-72
2021/03/22 14:50:57;;;;;;;5.80;2.00;;;;;;;;;;5155007;27;20468;-71
2021/03/22 14:53:44;;;;;;;6.10;2.17;;;;;;;;;;5155844;27;20459;-72
2021/03/22 14:56:22;;;;;;;4.07;1.97;;;;;;;;;;5157233;27;20446;-71
2021/03/22 14:58:58;;;;;;;3.63;1.50;;;;;;;;;;5155572;27;20551;-70
2021/03/22 15:04:22;;;;;;;;;;;;;;;;;;;;;
2021/03/22 15:06:57;;;;;;;2.70;1.97;;;;;;;;;;5134315;27;20458;-70
2021/03/22 15:09:37;;;;;;;5.40;1.37;;;;;;;;;;5132010;27;20460;-73
2021/03/22 15:12:17;;;;;;;6.90;2.30;;;;;;;;;;5098543;28;20448;-71
2021/03/22 15:14:52;;;;;;;3.87;1.40;;;;;;;;;;5115260;27;20585;-71
2021/03/22 15:22:59;;;;;;;4.83;1.40;;;;;;;;;;5133997;27;20751;-71
2021/03/22 15:28:43;;;;;;;3.93;1.43;;;;;;;;;;5110159;28;20591;-71
2021/03/22 15:31:22;;;;;;;6.00;1.90;;;;;;;;;;5126942;27;20455;-71
2021/03/22 15:34:03;;;;;;;4.20;1.27;;;;;;;;;;5119776;27;20455;-71
2021/03/22 15:37:03;;;;;;;5.87;1.50;;;;;;;;;;5141088;27;20474;-72
2021/03/22 15:39:31;;;;;;;4.07;1.33;;;;;;;;;;5141607;27;20462;-71
2021/03/22 15:42:03;;;;;;;3.73;1.20;;;;;;;;;;5141995;27;20482;-73
2021/03/22 15:47:27;;;;;;;4.30;1.33;;;;;;;;;;5139236;27;20745;-72
2021/03/22 15:50:05;;;;;;;4.83;1.33;;;;;;;;;;5141695;27;20951;-72
2021/03/22 15:52:49;;;;;;;4.10;1.90;;;;;;;;;;5130617;27;20484;-72
2021/03/22 15:55:23;;;;;;;4.07;1.70;;;;;;;;;;5121416;27;20482;-73